createdAt,value
2018-07-06T00:00:01.576Z,0.00
2018-07-06T00:01:01.592Z,0.00
2018-07-06T00:02:01.527Z,0.00
2018-07-06T00:03:02.191Z,0.00
2018-07-06T00:04:01.482Z,0.00
2018-07-06T00:05:01.501Z,0.00
2018-07-06T00:06:01.434Z,0.00
2018-07-06T00:07:01.449Z,0.00
2018-07-06T00:08:01.380Z,0.00
2018-07-06T00:09:01.359Z,0.00
2018-07-06T00:10:01.330Z,0.00
2018-07-06T00:11:01.378Z,0.00
2018-07-06T00:12:01.747Z,0.00
2018-07-06T00:13:01.260Z,0.00
2018-07-06T00:14:01.237Z,0.00
2018-07-06T00:15:01.238Z,0.00
2018-07-06T00:16:01.250Z,0.00
2018-07-06T00:17:01.170Z,0.00
2018-07-06T00:18:01.134Z,0.00
2018-07-06T00:19:01.695Z,0.00
2018-07-06T00:20:01.087Z,0.00
2018-07-06T00:21:01.100Z,0.00
2018-07-06T00:22:01.246Z,0.00
2018-07-06T00:23:01.743Z,0.00
2018-07-06T00:24:01.010Z,0.00
2018-07-06T00:25:00.966Z,0.00
2018-07-06T00:26:00.943Z,0.00
2018-07-06T00:27:01.258Z,0.00
2018-07-06T00:28:00.891Z,0.00
2018-07-06T00:29:00.862Z,0.00
2018-07-06T00:30:00.844Z,0.00
2018-07-06T00:31:00.813Z,0.00
2018-07-06T00:32:00.862Z,0.00
2018-07-06T00:33:00.769Z,0.00
2018-07-06T00:34:00.744Z,0.00
2018-07-06T00:35:01.707Z,0.00
2018-07-06T00:36:00.690Z,0.00
2018-07-06T00:37:00.705Z,0.00
2018-07-06T00:38:00.688Z,0.00
2018-07-06T00:39:00.783Z,0.00
2018-07-06T00:40:00.593Z,0.00
2018-07-06T00:41:00.625Z,0.00
2018-07-06T00:42:01.199Z,0.00
2018-07-06T00:43:00.518Z,0.00
2018-07-06T00:44:00.494Z,0.00
2018-07-06T00:45:01.207Z,0.00
2018-07-06T00:46:00.482Z,0.00
2018-07-06T00:47:00.427Z,0.00
2018-07-06T00:48:00.448Z,0.00
2018-07-06T00:49:00.369Z,0.00
2018-07-06T00:50:00.347Z,0.00
2018-07-06T00:51:00.323Z,0.00
2018-07-06T00:52:00.350Z,0.00
2018-07-06T00:53:00.313Z,0.00
2018-07-06T00:54:00.289Z,0.00
2018-07-06T00:55:00.256Z,0.00
2018-07-06T00:56:00.195Z,0.00
2018-07-06T00:57:00.700Z,0.00
2018-07-06T00:58:00.150Z,0.00
2018-07-06T00:59:00.165Z,0.00
2018-07-06T01:00:00.254Z,0.00
2018-07-06T01:01:00.073Z,0.00
2018-07-06T01:02:00.082Z,0.00
2018-07-06T01:03:00.257Z,0.00
2018-07-06T01:04:00.005Z,0.00
2018-07-06T01:04:59.971Z,0.00
2018-07-06T01:05:59.947Z,0.00
2018-07-06T01:06:59.919Z,0.00
2018-07-06T01:07:59.942Z,0.00
2018-07-06T01:08:59.916Z,0.00
2018-07-06T01:09:59.848Z,0.00
2018-07-06T01:11:00.703Z,0.00
2018-07-06T01:11:59.798Z,0.00
2018-07-06T01:12:59.785Z,0.00
2018-07-06T01:13:59.793Z,0.00
2018-07-06T01:14:59.720Z,0.00
2018-07-06T01:16:00.214Z,0.00
2018-07-06T01:16:59.670Z,0.00
2018-07-06T01:17:59.644Z,0.00
2018-07-06T01:18:59.671Z,0.00
2018-07-06T01:19:59.654Z,0.00
2018-07-06T01:20:59.574Z,0.00
2018-07-06T01:22:00.206Z,0.00
2018-07-06T01:22:59.517Z,0.00
2018-07-06T01:23:59.492Z,0.00
2018-07-06T01:24:59.533Z,0.00
2018-07-06T01:25:59.446Z,0.00
2018-07-06T01:27:00.206Z,0.00
2018-07-06T01:27:59.397Z,0.00
2018-07-06T01:28:59.429Z,0.00
2018-07-06T01:30:00.209Z,0.00
2018-07-06T01:30:59.319Z,0.00
2018-07-06T01:31:59.293Z,0.00
2018-07-06T01:33:00.211Z,0.00
2018-07-06T01:33:59.287Z,0.00
2018-07-06T01:34:59.224Z,0.00
2018-07-06T01:35:59.197Z,0.00
2018-07-06T01:36:59.265Z,0.00
2018-07-06T01:37:59.143Z,0.00
2018-07-06T01:38:59.116Z,0.00
2018-07-06T01:39:59.096Z,0.00
2018-07-06T01:40:59.710Z,0.00
2018-07-06T01:41:59.086Z,0.00
2018-07-06T01:42:59.020Z,0.00
2018-07-06T01:43:58.992Z,0.00
2018-07-06T01:44:59.009Z,0.00
2018-07-06T01:45:59.276Z,0.00
2018-07-06T01:46:58.915Z,0.00
2018-07-06T01:47:58.887Z,0.00
2018-07-06T01:48:58.874Z,0.00
2018-07-06T01:49:58.838Z,0.00
2018-07-06T01:50:58.869Z,0.00
2018-07-06T01:51:59.267Z,0.00
2018-07-06T01:52:58.762Z,0.00
2018-07-06T01:53:58.746Z,0.00
2018-07-06T01:54:58.710Z,0.00
2018-07-06T01:55:59.236Z,0.00
2018-07-06T01:56:58.707Z,0.00
2018-07-06T01:57:59.215Z,0.00
2018-07-06T01:58:58.607Z,0.00
2018-07-06T01:59:59.213Z,0.00
2018-07-06T02:00:58.557Z,0.00
2018-07-06T02:01:58.577Z,4.00
2018-07-06T02:02:59.215Z,4.00
2018-07-06T02:03:58.483Z,4.00
2018-07-06T02:04:58.458Z,4.00
2018-07-06T02:05:59.215Z,4.00
2018-07-06T02:06:59.217Z,0.00
2018-07-06T02:07:58.383Z,4.00
2018-07-06T02:08:58.398Z,4.00
2018-07-06T02:09:59.217Z,4.00
2018-07-06T02:10:58.302Z,4.00
2018-07-06T02:11:58.281Z,8.00
2018-07-06T02:12:59.220Z,4.00
2018-07-06T02:13:58.291Z,8.00
2018-07-06T02:14:58.723Z,8.00
2018-07-06T02:15:58.174Z,8.00
2018-07-06T02:16:58.148Z,12.00
2018-07-06T02:17:58.132Z,12.00
2018-07-06T02:18:58.140Z,12.00
2018-07-06T02:19:58.076Z,12.00
2018-07-06T02:20:58.092Z,16.00
2018-07-06T02:21:58.029Z,16.00
2018-07-06T02:22:57.998Z,20.00
2018-07-06T02:23:57.972Z,20.00
2018-07-06T02:24:58.718Z,24.00
2018-07-06T02:25:57.960Z,28.00
2018-07-06T02:26:57.892Z,28.00
2018-07-06T02:27:58.717Z,32.00
2018-07-06T02:28:57.843Z,36.00
2018-07-06T02:29:57.818Z,40.00
2018-07-06T02:30:58.285Z,40.00
2018-07-06T02:31:57.770Z,44.00
2018-07-06T02:32:58.721Z,52.00
2018-07-06T02:33:57.717Z,56.00
2018-07-06T02:34:57.690Z,56.00
2018-07-06T02:35:57.700Z,60.00
2018-07-06T02:36:57.817Z,60.00
2018-07-06T02:37:57.611Z,64.00
2018-07-06T02:38:57.643Z,68.00
2018-07-06T02:39:57.570Z,76.00
2018-07-06T02:40:57.788Z,80.00
2018-07-06T02:41:57.523Z,84.00
2018-07-06T02:42:57.486Z,92.00
2018-07-06T02:43:58.220Z,96.00
2018-07-06T02:44:57.437Z,104.00
2018-07-06T02:45:57.465Z,108.00
2018-07-06T02:46:58.232Z,120.00
2018-07-06T02:47:57.355Z,124.00
2018-07-06T02:48:58.223Z,136.00
2018-07-06T02:49:57.310Z,140.00
2018-07-06T02:50:57.776Z,156.00
2018-07-06T02:51:57.259Z,168.00
2018-07-06T02:52:57.233Z,180.00
2018-07-06T02:53:57.203Z,196.00
2018-07-06T02:54:57.723Z,208.00
2018-07-06T02:55:57.277Z,220.00
2018-07-06T02:56:57.136Z,240.00
2018-07-06T02:57:57.104Z,256.00
2018-07-06T02:58:57.299Z,284.00
2018-07-06T02:59:57.054Z,320.00
2018-07-06T03:00:57.064Z,344.00
2018-07-06T03:01:57.004Z,368.00
2018-07-06T03:02:57.287Z,392.00
2018-07-06T03:03:56.960Z,428.00
2018-07-06T03:04:56.923Z,484.00
2018-07-06T03:05:56.902Z,520.00
2018-07-06T03:06:57.728Z,516.00
2018-07-06T03:07:57.000Z,476.00
2018-07-06T03:08:56.826Z,468.00
2018-07-06T03:09:57.725Z,476.00
2018-07-06T03:10:56.775Z,508.00
2018-07-06T03:11:56.750Z,540.00
2018-07-06T03:12:56.779Z,532.00
2018-07-06T03:13:56.708Z,532.00
2018-07-06T03:14:56.675Z,556.00
2018-07-06T03:15:56.650Z,584.00
2018-07-06T03:16:56.629Z,636.00
2018-07-06T03:17:56.786Z,676.00
2018-07-06T03:18:56.578Z,708.00
2018-07-06T03:19:56.551Z,788.00
2018-07-06T03:20:56.530Z,892.00
2018-07-06T03:21:56.503Z,900.00
2018-07-06T03:22:56.782Z,924.00
2018-07-06T03:23:56.495Z,1020.00
2018-07-06T03:24:56.427Z,1096.00
2018-07-06T03:25:57.236Z,1148.00
2018-07-06T03:26:56.381Z,1180.00
2018-07-06T03:27:56.371Z,1204.00
2018-07-06T03:28:56.808Z,1204.00
2018-07-06T03:29:56.304Z,1156.00
2018-07-06T03:30:57.231Z,1068.00
2018-07-06T03:31:56.302Z,1036.00
2018-07-06T03:32:56.232Z,1040.00
2018-07-06T03:33:56.307Z,1036.00
2018-07-06T03:34:56.189Z,1088.00
2018-07-06T03:35:56.731Z,1120.00
2018-07-06T03:36:56.135Z,1124.00
2018-07-06T03:37:56.112Z,1084.00
2018-07-06T03:38:56.143Z,1084.00
2018-07-06T03:39:56.060Z,1128.00
2018-07-06T03:40:56.039Z,1144.00
2018-07-06T03:41:56.018Z,1140.00
2018-07-06T03:42:55.995Z,1152.00
2018-07-06T03:43:56.007Z,1148.00
2018-07-06T03:44:55.940Z,1132.00
2018-07-06T03:45:55.957Z,1120.00
2018-07-06T03:46:55.894Z,1092.00
2018-07-06T03:47:55.866Z,1096.00
2018-07-06T03:48:55.851Z,1124.00
2018-07-06T03:49:56.303Z,1128.00
2018-07-06T03:50:55.796Z,1096.00
2018-07-06T03:51:55.776Z,1036.00
2018-07-06T03:52:55.750Z,1024.00
2018-07-06T03:53:56.243Z,1032.00
2018-07-06T03:54:55.788Z,1024.00
2018-07-06T03:55:55.674Z,1036.00
2018-07-06T03:56:55.655Z,1064.00
2018-07-06T03:57:56.237Z,1080.00
2018-07-06T03:58:55.603Z,1128.00
2018-07-06T03:59:55.618Z,1136.00
2018-07-06T04:00:56.286Z,1088.00
2018-07-06T04:01:55.577Z,1052.00
2018-07-06T04:02:55.511Z,1048.00
2018-07-06T04:03:55.484Z,1072.00
2018-07-06T04:04:55.462Z,1072.00
2018-07-06T04:05:56.238Z,1076.00
2018-07-06T04:06:55.465Z,1080.00
2018-07-06T04:07:55.389Z,1108.00
2018-07-06T04:08:55.368Z,1184.00
2018-07-06T04:09:56.243Z,1244.00
2018-07-06T04:10:55.316Z,1312.00
2018-07-06T04:11:55.351Z,1388.00
2018-07-06T04:12:56.239Z,1516.00
2018-07-06T04:13:55.245Z,1560.00
2018-07-06T04:14:55.231Z,1620.00
2018-07-06T04:15:55.743Z,1660.00
2018-07-06T04:16:55.222Z,1496.00
2018-07-06T04:17:55.191Z,1404.00
2018-07-06T04:18:55.744Z,1544.00
2018-07-06T04:19:55.105Z,1708.00
2018-07-06T04:20:55.741Z,1748.00
2018-07-06T04:21:55.101Z,1968.00
2018-07-06T04:22:55.298Z,2264.00
2018-07-06T04:23:55.007Z,2512.00
2018-07-06T04:24:54.980Z,2672.00
2018-07-06T04:25:55.745Z,2728.00
2018-07-06T04:26:54.936Z,2632.00
2018-07-06T04:27:54.953Z,2436.00
2018-07-06T04:28:54.892Z,2320.00
2018-07-06T04:29:55.764Z,2316.00
2018-07-06T04:30:54.840Z,2372.00
2018-07-06T04:31:54.813Z,2604.00
2018-07-06T04:32:54.832Z,2772.00
2018-07-06T04:33:55.747Z,2512.00
2018-07-06T04:34:54.741Z,2352.00
2018-07-06T04:35:54.717Z,2336.00
2018-07-06T04:36:55.256Z,2416.00
2018-07-06T04:37:54.712Z,2680.00
2018-07-06T04:38:54.693Z,2928.00
2018-07-06T04:39:55.247Z,3200.00
2018-07-06T04:40:54.596Z,3444.00
2018-07-06T04:41:54.594Z,3460.00
2018-07-06T04:42:54.549Z,3420.00
2018-07-06T04:43:54.568Z,3508.00
2018-07-06T04:44:55.247Z,3556.00
2018-07-06T04:45:54.484Z,3392.00
2018-07-06T04:46:54.462Z,3236.00
2018-07-06T04:47:54.433Z,3248.00
2018-07-06T04:48:54.796Z,3368.00
2018-07-06T04:49:54.440Z,3404.00
2018-07-06T04:50:54.441Z,3352.00
2018-07-06T04:51:54.342Z,3160.00
2018-07-06T04:52:54.316Z,2948.00
2018-07-06T04:53:55.248Z,3052.00
2018-07-06T04:54:54.329Z,3440.00
2018-07-06T04:55:54.245Z,3704.00
2018-07-06T04:56:54.223Z,3828.00
2018-07-06T04:57:54.759Z,3856.00
2018-07-06T04:58:54.171Z,3784.00
2018-07-06T04:59:54.231Z,3588.00
2018-07-06T05:00:54.122Z,3460.00
2018-07-06T05:01:54.146Z,3492.00
2018-07-06T05:02:54.082Z,3736.00
2018-07-06T05:03:54.061Z,3960.00
2018-07-06T05:04:54.028Z,4144.00
2018-07-06T05:05:54.025Z,4320.00
2018-07-06T05:06:54.305Z,4524.00
2018-07-06T05:07:53.996Z,4808.00
2018-07-06T05:08:53.936Z,5156.00
2018-07-06T05:09:53.917Z,5276.00
2018-07-06T05:10:54.308Z,4992.00
2018-07-06T05:11:53.867Z,4844.00
2018-07-06T05:12:53.844Z,4748.00
2018-07-06T05:13:53.866Z,4824.00
2018-07-06T05:14:53.797Z,5036.00
2018-07-06T05:15:53.787Z,5008.00
2018-07-06T05:16:53.791Z,4776.00
2018-07-06T05:17:53.822Z,4688.00
2018-07-06T05:18:53.706Z,4876.00
2018-07-06T05:19:54.262Z,4956.00
2018-07-06T05:20:53.659Z,4788.00
2018-07-06T05:21:53.647Z,4832.00
2018-07-06T05:22:53.830Z,4736.00
2018-07-06T05:23:53.589Z,4624.00
2018-07-06T05:24:53.566Z,4724.00
2018-07-06T05:25:54.260Z,4840.00
2018-07-06T05:26:53.532Z,4980.00
2018-07-06T05:27:53.540Z,4832.00
2018-07-06T05:28:53.476Z,3984.00
2018-07-06T05:29:54.254Z,3488.00
2018-07-06T05:30:53.431Z,3248.00
2018-07-06T05:31:54.309Z,3024.00
2018-07-06T05:32:53.434Z,2820.00
2018-07-06T05:33:53.358Z,3448.00
2018-07-06T05:34:53.379Z,4504.00
2018-07-06T05:35:53.325Z,5512.00
2018-07-06T05:36:53.292Z,5596.00
2018-07-06T05:37:53.836Z,5428.00
2018-07-06T05:38:53.245Z,5576.00
2018-07-06T05:39:53.221Z,5788.00
2018-07-06T05:40:53.316Z,5328.00
2018-07-06T05:41:53.173Z,4800.00
2018-07-06T05:42:53.761Z,4476.00
2018-07-06T05:43:53.128Z,5012.00
2018-07-06T05:44:53.105Z,5404.00
2018-07-06T05:45:53.361Z,5228.00
2018-07-06T05:46:53.061Z,4968.00
2018-07-06T05:47:53.063Z,4676.00
2018-07-06T05:48:53.763Z,4500.00
2018-07-06T05:49:53.026Z,4496.00
2018-07-06T05:50:53.017Z,4584.00
2018-07-06T05:51:52.939Z,4696.00
2018-07-06T05:52:52.918Z,4492.00
2018-07-06T05:53:52.943Z,4388.00
2018-07-06T05:54:52.874Z,4444.00
2018-07-06T05:55:53.399Z,4364.00
2018-07-06T05:56:52.828Z,4184.00
2018-07-06T05:57:52.807Z,4192.00
2018-07-06T05:58:52.782Z,4204.00
2018-07-06T05:59:53.271Z,4412.00
2018-07-06T06:00:52.778Z,4708.00
2018-07-06T06:01:52.820Z,4764.00
2018-07-06T06:02:52.731Z,4888.00
2018-07-06T06:03:52.665Z,4972.00
2018-07-06T06:04:52.819Z,4764.00
2018-07-06T06:05:52.623Z,4684.00
2018-07-06T06:06:53.274Z,4612.00
2018-07-06T06:07:52.570Z,4728.00
2018-07-06T06:08:52.547Z,4964.00
2018-07-06T06:09:52.567Z,5256.00
2018-07-06T06:10:53.273Z,6188.00
2018-07-06T06:11:52.535Z,6904.00
2018-07-06T06:12:52.453Z,6792.00
2018-07-06T06:13:52.433Z,6772.00
2018-07-06T06:14:52.465Z,7144.00
2018-07-06T06:15:53.275Z,7332.00
2018-07-06T06:16:52.405Z,6788.00
2018-07-06T06:17:53.270Z,6292.00
2018-07-06T06:18:52.437Z,6256.00
2018-07-06T06:19:52.293Z,6312.00
2018-07-06T06:20:52.781Z,6384.00
2018-07-06T06:21:52.294Z,6440.00
2018-07-06T06:22:52.330Z,6088.00
2018-07-06T06:23:52.324Z,6140.00
2018-07-06T06:24:52.792Z,6064.00
2018-07-06T06:25:52.153Z,6148.00
2018-07-06T06:26:52.328Z,6080.00
2018-07-06T06:27:52.110Z,6100.00
2018-07-06T06:28:52.132Z,6348.00
2018-07-06T06:29:52.781Z,6600.00
2018-07-06T06:30:52.038Z,7132.00
2018-07-06T06:31:52.322Z,7668.00
2018-07-06T06:32:52.029Z,7412.00
2018-07-06T06:33:52.924Z,8120.00
2018-07-06T06:34:51.997Z,8444.00
2018-07-06T06:35:52.792Z,8088.00
2018-07-06T06:36:51.899Z,8788.00
2018-07-06T06:37:51.879Z,9688.00
2018-07-06T06:38:51.861Z,9444.00
2018-07-06T06:39:52.329Z,9672.00
2018-07-06T06:40:51.811Z,9756.00
2018-07-06T06:41:51.782Z,9796.00
2018-07-06T06:42:52.277Z,9540.00
2018-07-06T06:43:51.747Z,8556.00
2018-07-06T06:44:51.825Z,8316.00
2018-07-06T06:45:52.278Z,7824.00
2018-07-06T06:46:51.730Z,8436.00
2018-07-06T06:47:52.277Z,8948.00
2018-07-06T06:48:51.623Z,8960.00
2018-07-06T06:49:51.603Z,8592.00
2018-07-06T06:50:51.577Z,8308.00
2018-07-06T06:51:51.616Z,8296.00
2018-07-06T06:52:51.531Z,8476.00
2018-07-06T06:53:52.283Z,9544.00
2018-07-06T06:54:51.484Z,9312.00
2018-07-06T06:55:52.290Z,9956.00
2018-07-06T06:56:51.856Z,10548.00
2018-07-06T06:57:51.417Z,9732.00
2018-07-06T06:58:51.412Z,9812.00
2018-07-06T06:59:51.371Z,10032.00
2018-07-06T07:00:52.280Z,9572.00
2018-07-06T07:01:51.369Z,8760.00
2018-07-06T07:02:51.349Z,9080.00
2018-07-06T07:03:51.780Z,9076.00
2018-07-06T07:04:51.259Z,8400.00
2018-07-06T07:05:51.782Z,8184.00
2018-07-06T07:06:51.250Z,8476.00
2018-07-06T07:07:51.782Z,9480.00
2018-07-06T07:08:51.168Z,9788.00
2018-07-06T07:09:51.348Z,10096.00
2018-07-06T07:10:51.126Z,10632.00
2018-07-06T07:11:51.785Z,10532.00
2018-07-06T07:12:51.077Z,11732.00
2018-07-06T07:13:51.144Z,13640.00
2018-07-06T07:14:51.350Z,12580.00
2018-07-06T07:15:51.027Z,13404.00
2018-07-06T07:16:51.787Z,14180.00
2018-07-06T07:17:50.968Z,14572.00
2018-07-06T07:18:51.786Z,16832.00
2018-07-06T07:19:50.969Z,16108.00
2018-07-06T07:20:51.789Z,13556.00
2018-07-06T07:21:50.884Z,13680.00
2018-07-06T07:22:51.785Z,13984.00
2018-07-06T07:23:50.874Z,13132.00
2018-07-06T07:24:51.791Z,11640.00
2018-07-06T07:25:50.843Z,11492.00
2018-07-06T07:26:51.288Z,12108.00
2018-07-06T07:27:50.747Z,13436.00
2018-07-06T07:28:50.730Z,11472.00
2018-07-06T07:29:51.284Z,10328.00
2018-07-06T07:30:50.725Z,10480.00
2018-07-06T07:31:50.843Z,10968.00
2018-07-06T07:32:50.642Z,12016.00
2018-07-06T07:33:51.288Z,14784.00
2018-07-06T07:34:50.598Z,14376.00
2018-07-06T07:35:50.627Z,13976.00
2018-07-06T07:36:50.559Z,12172.00
2018-07-06T07:37:50.533Z,12228.00
2018-07-06T07:38:50.544Z,11900.00
2018-07-06T07:39:50.488Z,10724.00
2018-07-06T07:40:50.855Z,11452.00
2018-07-06T07:41:50.448Z,11964.00
2018-07-06T07:42:51.289Z,12400.00
2018-07-06T07:43:50.410Z,12920.00
2018-07-06T07:44:51.292Z,13792.00
2018-07-06T07:45:50.403Z,13680.00
2018-07-06T07:46:50.340Z,13680.00
2018-07-06T07:47:50.848Z,13028.00
2018-07-06T07:48:50.296Z,13056.00
2018-07-06T07:49:50.278Z,13588.00
2018-07-06T07:50:50.254Z,12948.00
2018-07-06T07:51:50.794Z,13236.00
2018-07-06T07:52:50.266Z,14600.00
2018-07-06T07:53:50.188Z,14432.00
2018-07-06T07:54:50.793Z,15316.00
2018-07-06T07:55:50.185Z,15584.00
2018-07-06T07:56:50.125Z,14560.00
2018-07-06T07:57:50.148Z,14908.00
2018-07-06T07:58:50.079Z,14292.00
2018-07-06T07:59:50.059Z,15284.00
2018-07-06T08:00:50.135Z,16992.00
2018-07-06T08:01:50.017Z,17984.00
2018-07-06T08:02:50.094Z,18528.00
2018-07-06T08:03:49.975Z,17664.00
2018-07-06T08:04:49.954Z,15184.00
2018-07-06T08:05:49.987Z,16052.00
2018-07-06T08:06:49.919Z,15644.00
2018-07-06T08:07:49.890Z,12840.00
2018-07-06T08:08:49.987Z,12484.00
2018-07-06T08:09:49.848Z,10904.00
2018-07-06T08:10:49.868Z,11480.00
2018-07-06T08:11:49.852Z,13924.00
2018-07-06T08:12:49.787Z,16084.00
2018-07-06T08:13:49.768Z,15468.00
2018-07-06T08:14:49.744Z,13844.00
2018-07-06T08:15:49.776Z,13064.00
2018-07-06T08:16:49.700Z,14328.00
2018-07-06T08:17:49.680Z,12644.00
2018-07-06T08:18:49.662Z,11900.00
2018-07-06T08:19:49.641Z,12288.00
2018-07-06T08:20:49.672Z,12524.00
2018-07-06T08:21:49.597Z,12024.00
2018-07-06T08:22:49.631Z,11932.00
2018-07-06T08:23:49.559Z,12376.00
2018-07-06T08:24:49.590Z,14824.00
2018-07-06T08:25:49.516Z,17760.00
2018-07-06T08:26:49.493Z,18816.00
2018-07-06T08:27:49.474Z,18112.00
2018-07-06T08:28:49.470Z,18272.00
2018-07-06T08:29:49.478Z,18528.00
2018-07-06T08:30:49.412Z,15500.00
2018-07-06T08:31:50.306Z,14848.00
2018-07-06T08:32:49.422Z,14992.00
2018-07-06T08:33:49.348Z,13824.00
2018-07-06T08:34:49.325Z,13836.00
2018-07-06T08:35:49.356Z,14756.00
2018-07-06T08:36:49.288Z,15968.00
2018-07-06T08:37:49.311Z,15480.00
2018-07-06T08:38:49.254Z,15120.00
2018-07-06T08:39:49.232Z,14448.00
2018-07-06T08:40:49.247Z,14192.00
2018-07-06T08:41:49.181Z,14732.00
2018-07-06T08:42:49.713Z,12868.00
2018-07-06T08:43:49.143Z,12108.00
2018-07-06T08:44:49.159Z,13472.00
2018-07-06T08:45:49.100Z,14608.00
2018-07-06T08:46:49.081Z,12504.00
2018-07-06T08:47:49.102Z,12764.00
2018-07-06T08:48:49.055Z,15884.00
2018-07-06T08:49:49.806Z,19584.00
2018-07-06T08:50:48.999Z,21664.00
2018-07-06T08:51:48.982Z,19168.00
2018-07-06T08:52:49.005Z,17664.00
2018-07-06T08:53:48.939Z,19584.00
2018-07-06T08:54:49.815Z,22112.00
2018-07-06T08:55:48.897Z,22720.00
2018-07-06T08:56:48.877Z,22528.00
2018-07-06T08:57:48.912Z,23072.00
2018-07-06T08:58:48.836Z,22400.00
2018-07-06T08:59:48.822Z,19680.00
2018-07-06T09:00:48.840Z,17184.00
2018-07-06T09:01:48.777Z,16928.00
2018-07-06T09:02:48.756Z,17024.00
2018-07-06T09:03:48.737Z,16216.00
2018-07-06T09:04:48.723Z,14684.00
2018-07-06T09:05:48.744Z,12832.00
2018-07-06T09:06:48.680Z,12236.00
2018-07-06T09:07:48.660Z,12460.00
2018-07-06T09:08:48.639Z,13692.00
2018-07-06T09:09:48.626Z,14244.00
2018-07-06T09:10:48.642Z,13888.00
2018-07-06T09:11:48.579Z,13048.00
2018-07-06T09:12:48.602Z,14040.00
2018-07-06T09:13:48.538Z,15624.00
2018-07-06T09:14:48.522Z,16036.00
2018-07-06T09:15:48.537Z,15768.00
2018-07-06T09:16:48.481Z,15840.00
2018-07-06T09:17:48.464Z,17792.00
2018-07-06T09:18:48.482Z,20672.00
2018-07-06T09:19:48.499Z,20960.00
2018-07-06T09:20:48.451Z,17888.00
2018-07-06T09:21:48.378Z,15612.00
2018-07-06T09:22:48.354Z,14228.00
2018-07-06T09:23:48.335Z,14464.00
2018-07-06T09:24:48.315Z,16212.00
2018-07-06T09:25:48.533Z,17920.00
2018-07-06T09:26:48.278Z,18208.00
2018-07-06T09:27:48.259Z,15612.00
2018-07-06T09:28:48.275Z,14856.00
2018-07-06T09:29:48.220Z,17088.00
2018-07-06T09:30:48.195Z,18272.00
2018-07-06T09:31:48.178Z,16704.00
2018-07-06T09:32:48.210Z,14168.00
2018-07-06T09:33:48.138Z,12724.00
2018-07-06T09:34:48.120Z,12596.00
2018-07-06T09:35:48.208Z,13648.00
2018-07-06T09:36:48.075Z,15372.00
2018-07-06T09:37:48.099Z,16344.00
2018-07-06T09:38:48.039Z,17664.00
2018-07-06T09:39:48.019Z,19168.00
2018-07-06T09:40:48.039Z,19008.00
2018-07-06T09:41:47.978Z,19456.00
2018-07-06T09:42:47.957Z,19232.00
2018-07-06T09:43:47.937Z,17728.00
2018-07-06T09:44:47.960Z,16104.00
2018-07-06T09:45:47.900Z,16672.00
2018-07-06T09:46:47.930Z,16028.00
2018-07-06T09:47:47.912Z,16672.00
2018-07-06T09:48:47.842Z,19104.00
2018-07-06T09:49:47.817Z,19904.00
2018-07-06T09:50:47.849Z,18144.00
2018-07-06T09:51:47.821Z,17248.00
2018-07-06T09:52:47.764Z,16832.00
2018-07-06T09:53:47.740Z,14808.00
2018-07-06T09:54:47.720Z,13288.00
2018-07-06T09:55:47.708Z,12356.00
2018-07-06T09:56:47.722Z,12192.00
2018-07-06T09:57:47.662Z,12884.00
2018-07-06T09:58:47.640Z,13904.00
2018-07-06T09:59:47.624Z,14908.00
2018-07-06T10:00:47.644Z,16192.00
2018-07-06T10:01:47.578Z,16992.00
2018-07-06T10:02:47.560Z,16072.00
2018-07-06T10:03:47.539Z,15672.00
2018-07-06T10:04:47.556Z,16084.00
2018-07-06T10:05:47.512Z,16228.00
2018-07-06T10:06:47.475Z,16168.00
2018-07-06T10:07:47.509Z,15908.00
2018-07-06T10:08:47.439Z,16236.00
2018-07-06T10:09:47.503Z,15188.00
2018-07-06T10:10:47.396Z,13948.00
2018-07-06T10:11:47.381Z,12544.00
2018-07-06T10:12:47.357Z,11760.00
2018-07-06T10:13:48.332Z,12652.00
2018-07-06T10:14:47.372Z,14752.00
2018-07-06T10:15:47.298Z,16768.00
2018-07-06T10:16:47.276Z,17184.00
2018-07-06T10:17:47.267Z,18432.00
2018-07-06T10:18:47.237Z,19680.00
2018-07-06T10:19:47.325Z,19360.00
2018-07-06T10:20:47.834Z,17312.00
2018-07-06T10:21:47.189Z,15396.00
2018-07-06T10:22:47.203Z,15460.00
2018-07-06T10:23:47.138Z,16340.00
2018-07-06T10:24:47.116Z,16992.00
2018-07-06T10:25:47.138Z,16004.00
2018-07-06T10:26:47.074Z,14220.00
2018-07-06T10:27:47.099Z,13708.00
2018-07-06T10:28:47.039Z,13172.00
2018-07-06T10:29:47.031Z,12548.00
2018-07-06T10:30:46.999Z,11912.00
2018-07-06T10:31:47.019Z,10980.00
2018-07-06T10:32:46.960Z,10100.00
2018-07-06T10:33:46.947Z,9724.00
2018-07-06T10:34:46.915Z,10088.00
2018-07-06T10:35:46.892Z,11016.00
2018-07-06T10:36:46.918Z,12580.00
2018-07-06T10:37:46.900Z,13620.00
2018-07-06T10:38:46.834Z,12364.00
2018-07-06T10:39:46.898Z,11356.00
2018-07-06T10:40:46.794Z,10936.00
2018-07-06T10:41:46.773Z,11448.00
2018-07-06T10:42:46.800Z,11904.00
2018-07-06T10:43:46.733Z,11220.00
2018-07-06T10:44:46.711Z,10624.00
2018-07-06T10:45:46.695Z,10672.00
2018-07-06T10:46:46.777Z,11340.00
2018-07-06T10:47:46.698Z,11724.00
2018-07-06T10:48:46.635Z,12136.00
2018-07-06T10:49:46.624Z,13072.00
2018-07-06T10:50:46.590Z,13968.00
2018-07-06T10:51:46.575Z,14412.00
2018-07-06T10:52:46.599Z,15104.00
2018-07-06T10:53:46.543Z,15708.00
2018-07-06T10:54:46.521Z,15256.00
2018-07-06T10:55:46.537Z,15904.00
2018-07-06T10:56:46.471Z,18272.00
2018-07-06T10:57:46.493Z,18944.00
2018-07-06T10:58:46.443Z,19456.00
2018-07-06T10:59:46.408Z,19392.00
2018-07-06T11:00:46.392Z,18048.00
2018-07-06T11:01:46.414Z,15628.00
2018-07-06T11:02:46.347Z,13660.00
2018-07-06T11:03:46.327Z,12444.00
2018-07-06T11:04:46.304Z,11560.00
2018-07-06T11:05:46.285Z,10144.00
2018-07-06T11:06:46.311Z,10304.00
2018-07-06T11:07:46.250Z,11740.00
2018-07-06T11:08:46.282Z,12480.00
2018-07-06T11:09:46.204Z,11564.00
2018-07-06T11:10:46.847Z,10116.00
2018-07-06T11:11:46.215Z,9568.00
2018-07-06T11:12:46.155Z,9112.00
2018-07-06T11:13:46.124Z,9184.00
2018-07-06T11:14:46.102Z,9912.00
2018-07-06T11:15:46.131Z,10476.00
2018-07-06T11:16:46.162Z,10828.00
2018-07-06T11:17:46.073Z,11284.00
2018-07-06T11:18:46.024Z,11676.00
2018-07-06T11:19:46.004Z,12084.00
2018-07-06T11:20:45.983Z,12652.00
2018-07-06T11:21:46.006Z,13792.00
2018-07-06T11:22:45.989Z,15148.00
2018-07-06T11:23:45.922Z,16048.00
2018-07-06T11:24:45.899Z,15892.00
2018-07-06T11:25:45.878Z,15348.00
2018-07-06T11:26:45.857Z,15812.00
2018-07-06T11:27:45.886Z,16640.00
2018-07-06T11:28:45.817Z,17024.00
2018-07-06T11:29:45.812Z,17376.00
2018-07-06T11:30:45.792Z,17216.00
2018-07-06T11:31:45.810Z,17760.00
2018-07-06T11:32:45.738Z,18496.00
2018-07-06T11:33:45.715Z,17824.00
2018-07-06T11:34:45.695Z,16004.00
2018-07-06T11:35:45.678Z,15492.00
2018-07-06T11:36:45.730Z,14832.00
2018-07-06T11:37:46.354Z,12536.00
2018-07-06T11:38:45.613Z,11032.00
2018-07-06T11:39:45.646Z,9956.00
2018-07-06T11:40:45.574Z,9828.00
2018-07-06T11:41:45.555Z,9440.00
2018-07-06T11:42:45.533Z,8704.00
2018-07-06T11:43:45.560Z,8788.00
2018-07-06T11:44:45.494Z,9636.00
2018-07-06T11:45:45.471Z,10624.00
2018-07-06T11:46:45.456Z,11740.00
2018-07-06T11:47:45.430Z,12808.00
2018-07-06T11:48:45.471Z,13796.00
2018-07-06T11:49:45.399Z,13148.00
2018-07-06T11:50:45.367Z,11368.00
2018-07-06T11:51:45.356Z,10580.00
2018-07-06T11:52:45.333Z,10516.00
2018-07-06T11:53:45.370Z,10352.00
2018-07-06T11:54:45.291Z,9996.00
2018-07-06T11:55:45.273Z,10592.00
2018-07-06T11:56:45.245Z,12264.00
2018-07-06T11:57:45.227Z,12896.00
2018-07-06T11:58:45.361Z,12260.00
2018-07-06T11:59:45.209Z,12140.00
2018-07-06T12:00:45.168Z,11720.00
2018-07-06T12:01:45.154Z,12216.00
2018-07-06T12:02:45.126Z,12448.00
2018-07-06T12:03:45.142Z,12264.00
2018-07-06T12:04:45.079Z,13304.00
2018-07-06T12:05:45.069Z,12996.00
2018-07-06T12:06:45.042Z,11808.00
2018-07-06T12:07:45.020Z,10520.00
2018-07-06T12:08:45.039Z,9596.00
2018-07-06T12:09:45.082Z,9816.00
2018-07-06T12:10:44.965Z,11132.00
2018-07-06T12:11:44.934Z,11988.00